sensor_id;sensor_type;location;lat;lon;timestamp;temperature;humidity
5086;DHT22;4715;51.660;7.082;2023-04-30T00:01:30;9.70;99.90
5086;DHT22;4715;51.660;7.082;2023-04-30T00:03:53;9.70;99.90
5086;DHT22;4715;51.660;7.082;2023-04-30T00:06:15;9.70;99.90
5086;DHT22;4715;51.660;7.082;2023-04-30T00:08:37;9.70;99.90
5086;DHT22;4715;51.660;7.082;2023-04-30T00:10:59;9.70;99.90
5086;DHT22;4715;51.660;7.082;2023-04-30T00:13:21;9.60;99.90
5086;DHT22;4715;51.660;7.082;2023-04-30T00:15:43;9.60;99.90
5086;DHT22;4715;51.660;7.082;2023-04-30T00:18:05;9.60;99.90
5086;DHT22;4715;51.660;7.082;2023-04-30T00:20:28;9.60;99.90
5086;DHT22;4715;51.660;7.082;2023-04-30T00:22:50;9.60;99.90
5086;DHT22;4715;51.660;7.082;2023-04-30T00:25:12;9.60;99.90
5086;DHT22;4715;51.660;7.082;2023-04-30T00:27:34;9.60;99.90
5086;DHT22;4715;51.660;7.082;2023-04-30T00:29:56;9.60;99.90
5086;DHT22;4715;51.660;7.082;2023-04-30T00:32:18;9.50;99.90
5086;DHT22;4715;51.660;7.082;2023-04-30T00:34:40;9.50;99.90
5086;DHT22;4715;51.660;7.082;2023-04-30T00:37:03;9.50;99.90
5086;DHT22;4715;51.660;7.082;2023-04-30T00:39:25;9.60;99.90
5086;DHT22;4715;51.660;7.082;2023-04-30T00:41:46;9.50;99.90
5086;DHT22;4715;51.660;7.082;2023-04-30T00:44:08;9.50;99.90
5086;DHT22;4715;51.660;7.082;2023-04-30T00:46:30;9.50;99.90
5086;DHT22;4715;51.660;7.082;2023-04-30T00:48:52;9.50;99.90
5086;DHT22;4715;51.660;7.082;2023-04-30T00:51:14;9.50;99.90
5086;DHT22;4715;51.660;7.082;2023-04-30T00:53:39;9.50;99.90
5086;DHT22;4715;51.660;7.082;2023-04-30T00:56:01;9.40;99.90
5086;DHT22;4715;51.660;7.082;2023-04-30T00:58:23;9.40;99.90
5086;DHT22;4715;51.660;7.082;2023-04-30T01:00:45;9.30;99.90
5086;DHT22;4715;51.660;7.082;2023-04-30T01:03:07;9.30;99.90
5086;DHT22;4715;51.660;7.082;2023-04-30T01:05:29;9.30;99.90
5086;DHT22;4715;51.660;7.082;2023-04-30T01:07:51;9.30;99.90
5086;DHT22;4715;51.660;7.082;2023-04-30T01:10:16;9.20;99.90
5086;DHT22;4715;51.660;7.082;2023-04-30T01:12:43;9.20;99.90
5086;DHT22;4715;51.660;7.082;2023-04-30T01:15:11;9.20;99.90
5086;DHT22;4715;51.660;7.082;2023-04-30T01:17:40;9.20;99.90
5086;DHT22;4715;51.660;7.082;2023-04-30T01:20:03;9.20;99.90
5086;DHT22;4715;51.660;7.082;2023-04-30T01:22:34;9.10;99.90
5086;DHT22;4715;51.660;7.082;2023-04-30T01:25:13;9.10;99.90
5086;DHT22;4715;51.660;7.082;2023-04-30T01:28:13;9.00;99.90
5086;DHT22;4715;51.660;7.082;2023-04-30T01:30:36;9.00;99.90
5086;DHT22;4715;51.660;7.082;2023-04-30T01:33:00;8.90;99.90
5086;DHT22;4715;51.660;7.082;2023-04-30T01:35:32;8.80;99.90
5086;DHT22;4715;51.660;7.082;2023-04-30T01:38:06;8.80;99.90
5086;DHT22;4715;51.660;7.082;2023-04-30T01:40:38;8.80;99.90
5086;DHT22;4715;51.660;7.082;2023-04-30T01:43:09;8.80;99.90
5086;DHT22;4715;51.660;7.082;2023-04-30T01:45:46;8.70;99.90
5086;DHT22;4715;51.660;7.082;2023-04-30T01:48:18;8.70;99.90
5086;DHT22;4715;51.660;7.082;2023-04-30T01:50:47;8.70;99.90
5086;DHT22;4715;51.660;7.082;2023-04-30T01:53:15;8.60;99.90
5086;DHT22;4715;51.660;7.082;2023-04-30T01:55:42;8.60;99.90
5086;DHT22;4715;51.660;7.082;2023-04-30T01:58:06;8.50;99.90
5086;DHT22;4715;51.660;7.082;2023-04-30T02:00:30;8.50;99.90
5086;DHT22;4715;51.660;7.082;2023-04-30T02:02:53;8.50;99.90
5086;DHT22;4715;51.660;7.082;2023-04-30T02:05:15;8.50;99.90
5086;DHT22;4715;51.660;7.082;2023-04-30T02:07:38;8.40;99.90
5086;DHT22;4715;51.660;7.082;2023-04-30T02:10:00;8.50;99.90
5086;DHT22;4715;51.660;7.082;2023-04-30T02:12:22;8.50;99.90
5086;DHT22;4715;51.660;7.082;2023-04-30T02:14:44;8.40;99.90
5086;DHT22;4715;51.660;7.082;2023-04-30T02:17:06;8.40;99.90
5086;DHT22;4715;51.660;7.082;2023-04-30T02:19:29;8.40;99.90
5086;DHT22;4715;51.660;7.082;2023-04-30T02:21:51;8.40;99.90
5086;DHT22;4715;51.660;7.082;2023-04-30T02:24:13;8.40;99.90
5086;DHT22;4715;51.660;7.082;2023-04-30T02:26:35;8.40;99.90
5086;DHT22;4715;51.660;7.082;2023-04-30T02:28:56;8.40;99.90
5086;DHT22;4715;51.660;7.082;2023-04-30T02:31:18;8.40;99.90
5086;DHT22;4715;51.660;7.082;2023-04-30T02:33:40;8.40;99.90
5086;DHT22;4715;51.660;7.082;2023-04-30T02:36:04;8.40;99.90
5086;DHT22;4715;51.660;7.082;2023-04-30T02:38:26;8.40;99.90
5086;DHT22;4715;51.660;7.082;2023-04-30T02:40:47;8.40;99.90
5086;DHT22;4715;51.660;7.082;2023-04-30T02:43:09;8.40;99.90
5086;DHT22;4715;51.660;7.082;2023-04-30T02:45:31;8.40;99.90
5086;DHT22;4715;51.660;7.082;2023-04-30T02:47:53;8.40;99.90
5086;DHT22;4715;51.660;7.082;2023-04-30T02:50:15;8.40;99.90
5086;DHT22;4715;51.660;7.082;2023-04-30T02:52:38;8.40;99.90
5086;DHT22;4715;51.660;7.082;2023-04-30T02:55:00;8.40;99.90
5086;DHT22;4715;51.660;7.082;2023-04-30T02:57:22;8.30;99.90
5086;DHT22;4715;51.660;7.082;2023-04-30T02:59:44;8.30;99.90
5086;DHT22;4715;51.660;7.082;2023-04-30T03:02:06;8.30;99.90
5086;DHT22;4715;51.660;7.082;2023-04-30T03:04:28;8.20;99.90
5086;DHT22;4715;51.660;7.082;2023-04-30T03:06:50;8.20;99.90
5086;DHT22;4715;51.660;7.082;2023-04-30T03:09:13;8.10;99.90
5086;DHT22;4715;51.660;7.082;2023-04-30T03:11:35;8.10;99.90
5086;DHT22;4715;51.660;7.082;2023-04-30T03:13:57;8.00;99.90
5086;DHT22;4715;51.660;7.082;2023-04-30T03:16:20;8.00;99.90
5086;DHT22;4715;51.660;7.082;2023-04-30T03:18:42;8.00;99.90
5086;DHT22;4715;51.660;7.082;2023-04-30T03:21:04;8.00;99.90
5086;DHT22;4715;51.660;7.082;2023-04-30T03:23:27;8.00;99.90
5086;DHT22;4715;51.660;7.082;2023-04-30T03:25:50;8.00;99.90
5086;DHT22;4715;51.660;7.082;2023-04-30T03:28:12;8.00;99.90
5086;DHT22;4715;51.660;7.082;2023-04-30T03:30:33;8.00;99.90
5086;DHT22;4715;51.660;7.082;2023-04-30T03:32:55;8.00;99.90
5086;DHT22;4715;51.660;7.082;2023-04-30T03:35:17;8.00;99.90
5086;DHT22;4715;51.660;7.082;2023-04-30T03:37:39;8.00;99.90
5086;DHT22;4715;51.660;7.082;2023-04-30T03:40:01;7.90;99.90
5086;DHT22;4715;51.660;7.082;2023-04-30T03:42:24;7.90;99.90
5086;DHT22;4715;51.660;7.082;2023-04-30T03:44:46;7.90;99.90
5086;DHT22;4715;51.660;7.082;2023-04-30T03:47:08;7.80;99.90
5086;DHT22;4715;51.660;7.082;2023-04-30T03:49:30;7.90;99.90
5086;DHT22;4715;51.660;7.082;2023-04-30T03:51:52;7.80;99.90
5086;DHT22;4715;51.660;7.082;2023-04-30T03:54:14;7.80;99.90
5086;DHT22;4715;51.660;7.082;2023-04-30T03:56:36;7.80;99.90
5086;DHT22;4715;51.660;7.082;2023-04-30T03:58:59;7.90;99.90
5086;DHT22;4715;51.660;7.082;2023-04-30T04:01:21;7.90;99.90
5086;DHT22;4715;51.660;7.082;2023-04-30T04:03:44;7.90;99.90
5086;DHT22;4715;51.660;7.082;2023-04-30T04:06:06;7.90;99.90
5086;DHT22;4715;51.660;7.082;2023-04-30T04:08:28;7.90;99.90
5086;DHT22;4715;51.660;7.082;2023-04-30T04:10:50;7.90;99.90
5086;DHT22;4715;51.660;7.082;2023-04-30T04:13:11;7.90;99.90
5086;DHT22;4715;51.660;7.082;2023-04-30T04:15:35;7.90;99.90
5086;DHT22;4715;51.660;7.082;2023-04-30T04:17:56;7.90;99.90
5086;DHT22;4715;51.660;7.082;2023-04-30T04:20:18;7.90;99.90
5086;DHT22;4715;51.660;7.082;2023-04-30T04:22:40;7.90;99.90
5086;DHT22;4715;51.660;7.082;2023-04-30T04:25:06;7.80;99.90
5086;DHT22;4715;51.660;7.082;2023-04-30T04:27:28;7.80;99.90
5086;DHT22;4715;51.660;7.082;2023-04-30T04:29:49;7.70;99.90
5086;DHT22;4715;51.660;7.082;2023-04-30T04:32:13;7.70;99.90
5086;DHT22;4715;51.660;7.082;2023-04-30T04:34:35;7.70;99.90
5086;DHT22;4715;51.660;7.082;2023-04-30T04:36:57;7.70;99.90
5086;DHT22;4715;51.660;7.082;2023-04-30T04:39:19;7.70;99.90
5086;DHT22;4715;51.660;7.082;2023-04-30T04:41:41;7.70;99.90
5086;DHT22;4715;51.660;7.082;2023-04-30T04:44:03;7.70;99.90
5086;DHT22;4715;51.660;7.082;2023-04-30T04:46:25;7.70;99.90
5086;DHT22;4715;51.660;7.082;2023-04-30T04:48:49;7.80;99.90
5086;DHT22;4715;51.660;7.082;2023-04-30T04:51:10;7.80;99.90
5086;DHT22;4715;51.660;7.082;2023-04-30T04:53:32;7.80;99.90
5086;DHT22;4715;51.660;7.082;2023-04-30T04:55:54;7.80;99.90
5086;DHT22;4715;51.660;7.082;2023-04-30T04:58:17;7.80;99.90
5086;DHT22;4715;51.660;7.082;2023-04-30T05:00:38;7.80;99.90
5086;DHT22;4715;51.660;7.082;2023-04-30T05:03:00;7.90;99.90
5086;DHT22;4715;51.660;7.082;2023-04-30T05:05:23;7.90;99.90
5086;DHT22;4715;51.660;7.082;2023-04-30T05:07:45;8.00;99.90
5086;DHT22;4715;51.660;7.082;2023-04-30T05:10:08;8.00;99.90
5086;DHT22;4715;51.660;7.082;2023-04-30T05:12:30;8.00;99.90
5086;DHT22;4715;51.660;7.082;2023-04-30T05:14:52;8.10;99.90
5086;DHT22;4715;51.660;7.082;2023-04-30T05:17:13;8.10;99.90
5086;DHT22;4715;51.660;7.082;2023-04-30T05:19:35;8.20;99.90
5086;DHT22;4715;51.660;7.082;2023-04-30T05:21:58;8.30;99.90
5086;DHT22;4715;51.660;7.082;2023-04-30T05:24:23;8.30;99.90
5086;DHT22;4715;51.660;7.082;2023-04-30T05:26:45;8.40;99.90
5086;DHT22;4715;51.660;7.082;2023-04-30T05:29:07;8.50;99.90
5086;DHT22;4715;51.660;7.082;2023-04-30T05:31:30;8.60;99.90
5086;DHT22;4715;51.660;7.082;2023-04-30T05:33:52;8.70;99.90
5086;DHT22;4715;51.660;7.082;2023-04-30T05:36:14;8.80;99.90
5086;DHT22;4715;51.660;7.082;2023-04-30T05:38:37;8.90;99.90
5086;DHT22;4715;51.660;7.082;2023-04-30T05:40:59;8.90;99.90
5086;DHT22;4715;51.660;7.082;2023-04-30T05:43:21;9.00;99.90
5086;DHT22;4715;51.660;7.082;2023-04-30T05:45:43;9.00;99.90
5086;DHT22;4715;51.660;7.082;2023-04-30T05:48:05;9.00;99.90
5086;DHT22;4715;51.660;7.082;2023-04-30T05:50:26;9.10;99.90
5086;DHT22;4715;51.660;7.082;2023-04-30T05:52:48;9.20;99.90
5086;DHT22;4715;51.660;7.082;2023-04-30T05:55:11;9.20;99.90
5086;DHT22;4715;51.660;7.082;2023-04-30T05:57:33;9.30;99.90
5086;DHT22;4715;51.660;7.082;2023-04-30T05:59:58;9.30;99.90
5086;DHT22;4715;51.660;7.082;2023-04-30T06:02:22;9.30;99.90
5086;DHT22;4715;51.660;7.082;2023-04-30T06:04:43;9.40;99.90
5086;DHT22;4715;51.660;7.082;2023-04-30T06:07:05;9.40;99.90
5086;DHT22;4715;51.660;7.082;2023-04-30T06:09:27;9.50;99.90
5086;DHT22;4715;51.660;7.082;2023-04-30T06:11:50;9.60;99.90
5086;DHT22;4715;51.660;7.082;2023-04-30T06:14:12;9.70;99.90
5086;DHT22;4715;51.660;7.082;2023-04-30T06:16:34;9.70;99.90
5086;DHT22;4715;51.660;7.082;2023-04-30T06:18:56;9.80;99.90
5086;DHT22;4715;51.660;7.082;2023-04-30T06:21:18;9.90;99.90
5086;DHT22;4715;51.660;7.082;2023-04-30T06:23:40;9.90;99.90
5086;DHT22;4715;51.660;7.082;2023-04-30T06:26:02;9.90;99.90
5086;DHT22;4715;51.660;7.082;2023-04-30T06:28:25;10.00;99.90
5086;DHT22;4715;51.660;7.082;2023-04-30T06:30:48;10.10;99.90
5086;DHT22;4715;51.660;7.082;2023-04-30T06:33:10;10.10;99.90
5086;DHT22;4715;51.660;7.082;2023-04-30T06:35:32;10.20;99.90
5086;DHT22;4715;51.660;7.082;2023-04-30T06:37:54;10.30;99.90
5086;DHT22;4715;51.660;7.082;2023-04-30T06:40:16;10.30;99.90
5086;DHT22;4715;51.660;7.082;2023-04-30T06:42:38;10.40;99.90
5086;DHT22;4715;51.660;7.082;2023-04-30T06:45:02;10.50;99.90
5086;DHT22;4715;51.660;7.082;2023-04-30T06:47:26;10.50;99.90
5086;DHT22;4715;51.660;7.082;2023-04-30T06:49:47;10.60;99.90
5086;DHT22;4715;51.660;7.082;2023-04-30T06:52:09;10.60;99.90
5086;DHT22;4715;51.660;7.082;2023-04-30T06:54:31;10.70;99.90
5086;DHT22;4715;51.660;7.082;2023-04-30T06:56:53;10.80;99.90
5086;DHT22;4715;51.660;7.082;2023-04-30T06:59:15;10.90;99.90
5086;DHT22;4715;51.660;7.082;2023-04-30T07:01:38;11.00;99.90
5086;DHT22;4715;51.660;7.082;2023-04-30T07:04:00;11.00;99.90
5086;DHT22;4715;51.660;7.082;2023-04-30T07:06:22;11.10;99.90
5086;DHT22;4715;51.660;7.082;2023-04-30T07:08:44;11.10;99.90
5086;DHT22;4715;51.660;7.082;2023-04-30T07:11:06;11.20;99.90
5086;DHT22;4715;51.660;7.082;2023-04-30T07:13:28;11.30;99.90
5086;DHT22;4715;51.660;7.082;2023-04-30T07:15:50;11.40;99.90
5086;DHT22;4715;51.660;7.082;2023-04-30T07:18:13;11.50;99.90
5086;DHT22;4715;51.660;7.082;2023-04-30T07:20:35;11.60;99.90
5086;DHT22;4715;51.660;7.082;2023-04-30T07:22:57;11.70;99.90
5086;DHT22;4715;51.660;7.082;2023-04-30T07:25:19;11.80;99.90
5086;DHT22;4715;51.660;7.082;2023-04-30T07:27:41;11.90;99.90
5086;DHT22;4715;51.660;7.082;2023-04-30T07:30:05;12.00;99.90
5086;DHT22;4715;51.660;7.082;2023-04-30T07:32:27;12.10;99.90
5086;DHT22;4715;51.660;7.082;2023-04-30T07:34:50;12.20;99.90
5086;DHT22;4715;51.660;7.082;2023-04-30T07:37:13;12.30;99.90
5086;DHT22;4715;51.660;7.082;2023-04-30T07:39:35;12.40;99.90
5086;DHT22;4715;51.660;7.082;2023-04-30T07:41:57;12.50;99.90
5086;DHT22;4715;51.660;7.082;2023-04-30T07:44:20;12.60;99.90
5086;DHT22;4715;51.660;7.082;2023-04-30T07:46:42;12.70;99.90
5086;DHT22;4715;51.660;7.082;2023-04-30T07:49:04;12.80;99.90
5086;DHT22;4715;51.660;7.082;2023-04-30T07:51:27;12.90;99.90
5086;DHT22;4715;51.660;7.082;2023-04-30T07:53:49;13.00;99.90
5086;DHT22;4715;51.660;7.082;2023-04-30T07:56:12;13.20;99.90
5086;DHT22;4715;51.660;7.082;2023-04-30T07:58:34;13.30;99.90
5086;DHT22;4715;51.660;7.082;2023-04-30T08:00:56;13.40;99.90
5086;DHT22;4715;51.660;7.082;2023-04-30T08:03:24;13.40;99.90
5086;DHT22;4715;51.660;7.082;2023-04-30T08:05:46;13.50;99.90
5086;DHT22;4715;51.660;7.082;2023-04-30T08:08:09;13.60;99.90
5086;DHT22;4715;51.660;7.082;2023-04-30T08:10:31;13.60;99.90
5086;DHT22;4715;51.660;7.082;2023-04-30T08:12:53;13.70;99.90
5086;DHT22;4715;51.660;7.082;2023-04-30T08:15:15;13.80;99.90
5086;DHT22;4715;51.660;7.082;2023-04-30T08:18:15;13.80;99.90
5086;DHT22;4715;51.660;7.082;2023-04-30T08:20:37;13.90;99.90
5086;DHT22;4715;51.660;7.082;2023-04-30T08:22:59;13.90;99.90
5086;DHT22;4715;51.660;7.082;2023-04-30T08:25:23;14.00;99.90
5086;DHT22;4715;51.660;7.082;2023-04-30T08:27:44;14.10;99.90
5086;DHT22;4715;51.660;7.082;2023-04-30T08:30:07;14.20;99.90
5086;DHT22;4715;51.660;7.082;2023-04-30T08:32:29;14.30;99.90
5086;DHT22;4715;51.660;7.082;2023-04-30T08:34:51;14.40;99.90
5086;DHT22;4715;51.660;7.082;2023-04-30T08:37:14;14.40;99.90
5086;DHT22;4715;51.660;7.082;2023-04-30T08:39:36;14.60;99.90
5086;DHT22;4715;51.660;7.082;2023-04-30T08:42:01;14.70;99.90
5086;DHT22;4715;51.660;7.082;2023-04-30T08:44:26;14.70;99.90
5086;DHT22;4715;51.660;7.082;2023-04-30T08:46:49;14.70;99.90
5086;DHT22;4715;51.660;7.082;2023-04-30T08:49:13;14.80;99.90
5086;DHT22;4715;51.660;7.082;2023-04-30T08:51:36;14.90;99.90
5086;DHT22;4715;51.660;7.082;2023-04-30T08:53:58;15.00;99.90
5086;DHT22;4715;51.660;7.082;2023-04-30T08:56:20;15.10;99.90
5086;DHT22;4715;51.660;7.082;2023-04-30T08:59:07;15.30;99.90
5086;DHT22;4715;51.660;7.082;2023-04-30T09:01:29;15.40;99.90
5086;DHT22;4715;51.660;7.082;2023-04-30T09:03:51;15.50;99.90
5086;DHT22;4715;51.660;7.082;2023-04-30T09:06:15;15.60;99.90
5086;DHT22;4715;51.660;7.082;2023-04-30T09:08:41;15.70;99.90
5086;DHT22;4715;51.660;7.082;2023-04-30T09:11:19;15.70;99.90
5086;DHT22;4715;51.660;7.082;2023-04-30T09:13:42;15.80;99.90
5086;DHT22;4715;51.660;7.082;2023-04-30T09:16:08;15.80;99.90
5086;DHT22;4715;51.660;7.082;2023-04-30T09:18:38;15.80;99.90
5086;DHT22;4715;51.660;7.082;2023-04-30T09:21:01;15.90;99.90
5086;DHT22;4715;51.660;7.082;2023-04-30T09:23:23;16.00;99.90
5086;DHT22;4715;51.660;7.082;2023-04-30T09:25:45;16.00;99.90
5086;DHT22;4715;51.660;7.082;2023-04-30T09:28:08;16.10;99.90
5086;DHT22;4715;51.660;7.082;2023-04-30T09:30:31;16.20;99.90
5086;DHT22;4715;51.660;7.082;2023-04-30T09:32:57;16.30;99.90
5086;DHT22;4715;51.660;7.082;2023-04-30T09:35:28;16.50;99.90
5086;DHT22;4715;51.660;7.082;2023-04-30T09:37:50;16.50;99.90
5086;DHT22;4715;51.660;7.082;2023-04-30T09:40:12;16.70;99.90
5086;DHT22;4715;51.660;7.082;2023-04-30T09:42:34;16.70;99.90
5086;DHT22;4715;51.660;7.082;2023-04-30T09:44:56;16.80;99.90
5086;DHT22;4715;51.660;7.082;2023-04-30T09:47:19;16.90;99.90
5086;DHT22;4715;51.660;7.082;2023-04-30T09:49:46;17.00;99.90
5086;DHT22;4715;51.660;7.082;2023-04-30T09:52:08;17.10;99.90
5086;DHT22;4715;51.660;7.082;2023-04-30T09:54:31;17.10;99.90
5086;DHT22;4715;51.660;7.082;2023-04-30T09:56:54;17.30;99.90
5086;DHT22;4715;51.660;7.082;2023-04-30T09:59:21;17.30;99.90
5086;DHT22;4715;51.660;7.082;2023-04-30T10:01:43;17.40;99.90
5086;DHT22;4715;51.660;7.082;2023-04-30T10:04:06;17.50;99.90
5086;DHT22;4715;51.660;7.082;2023-04-30T10:06:30;17.50;99.90
5086;DHT22;4715;51.660;7.082;2023-04-30T10:08:56;17.60;99.90
5086;DHT22;4715;51.660;7.082;2023-04-30T10:11:20;17.60;99.90
5086;DHT22;4715;51.660;7.082;2023-04-30T10:13:44;17.70;99.90
5086;DHT22;4715;51.660;7.082;2023-04-30T10:16:11;17.70;99.90
5086;DHT22;4715;51.660;7.082;2023-04-30T10:18:39;17.70;99.90
5086;DHT22;4715;51.660;7.082;2023-04-30T10:21:05;17.70;99.90
5086;DHT22;4715;51.660;7.082;2023-04-30T10:23:31;17.80;99.90
5086;DHT22;4715;51.660;7.082;2023-04-30T10:25:53;17.80;99.90
5086;DHT22;4715;51.660;7.082;2023-04-30T10:28:19;17.80;99.90
5086;DHT22;4715;51.660;7.082;2023-04-30T10:30:41;17.90;99.90
5086;DHT22;4715;51.660;7.082;2023-04-30T10:33:12;18.00;99.90
5086;DHT22;4715;51.660;7.082;2023-04-30T10:35:44;18.00;99.90
5086;DHT22;4715;51.660;7.082;2023-04-30T10:38:12;18.10;99.90
5086;DHT22;4715;51.660;7.082;2023-04-30T10:40:37;18.10;99.90
5086;DHT22;4715;51.660;7.082;2023-04-30T10:42:59;18.20;99.90
5086;DHT22;4715;51.660;7.082;2023-04-30T10:45:33;18.20;99.90
5086;DHT22;4715;51.660;7.082;2023-04-30T10:47:56;18.20;99.90
5086;DHT22;4715;51.660;7.082;2023-04-30T10:50:23;18.20;99.90
5086;DHT22;4715;51.660;7.082;2023-04-30T10:52:47;18.30;99.90
5086;DHT22;4715;51.660;7.082;2023-04-30T10:55:22;18.30;99.90
5086;DHT22;4715;51.660;7.082;2023-04-30T10:57:46;18.40;99.90
5086;DHT22;4715;51.660;7.082;2023-04-30T11:00:28;18.50;99.90
5086;DHT22;4715;51.660;7.082;2023-04-30T11:02:55;18.50;99.90
5086;DHT22;4715;51.660;7.082;2023-04-30T11:05:18;18.60;99.90
5086;DHT22;4715;51.660;7.082;2023-04-30T11:07:56;18.60;99.90
5086;DHT22;4715;51.660;7.082;2023-04-30T11:10:20;18.70;99.90
5086;DHT22;4715;51.660;7.082;2023-04-30T11:12:49;18.70;99.90
5086;DHT22;4715;51.660;7.082;2023-04-30T11:15:12;18.80;99.90
5086;DHT22;4715;51.660;7.082;2023-04-30T11:17:36;18.90;99.90
5086;DHT22;4715;51.660;7.082;2023-04-30T11:19:59;18.90;99.90
5086;DHT22;4715;51.660;7.082;2023-04-30T11:22:23;18.90;99.90
5086;DHT22;4715;51.660;7.082;2023-04-30T11:24:54;19.00;99.90
5086;DHT22;4715;51.660;7.082;2023-04-30T11:27:19;19.10;99.90
5086;DHT22;4715;51.660;7.082;2023-04-30T11:29:46;19.20;99.90
5086;DHT22;4715;51.660;7.082;2023-04-30T11:32:13;19.30;99.90
5086;DHT22;4715;51.660;7.082;2023-04-30T11:34:37;19.30;99.90
5086;DHT22;4715;51.660;7.082;2023-04-30T11:37:05;19.30;99.90
5086;DHT22;4715;51.660;7.082;2023-04-30T11:39:27;19.30;99.90
5086;DHT22;4715;51.660;7.082;2023-04-30T11:41:51;19.40;99.90
5086;DHT22;4715;51.660;7.082;2023-04-30T11:44:25;19.50;99.90
5086;DHT22;4715;51.660;7.082;2023-04-30T11:46:49;19.50;99.90
5086;DHT22;4715;51.660;7.082;2023-04-30T11:49:11;19.60;99.90
5086;DHT22;4715;51.660;7.082;2023-04-30T11:51:35;19.60;99.90
5086;DHT22;4715;51.660;7.082;2023-04-30T11:53:59;19.60;99.90
5086;DHT22;4715;51.660;7.082;2023-04-30T11:56:26;19.70;99.90
5086;DHT22;4715;51.660;7.082;2023-04-30T11:58:51;19.70;99.90
5086;DHT22;4715;51.660;7.082;2023-04-30T12:01:15;19.80;99.90
5086;DHT22;4715;51.660;7.082;2023-04-30T12:03:43;19.80;99.90
5086;DHT22;4715;51.660;7.082;2023-04-30T12:06:10;19.90;99.90
5086;DHT22;4715;51.660;7.082;2023-04-30T12:08:32;20.00;99.90
5086;DHT22;4715;51.660;7.082;2023-04-30T12:10:54;20.10;99.90
5086;DHT22;4715;51.660;7.082;2023-04-30T12:13:16;20.10;99.90
5086;DHT22;4715;51.660;7.082;2023-04-30T12:15:38;20.20;99.90
5086;DHT22;4715;51.660;7.082;2023-04-30T12:18:10;20.20;99.90
5086;DHT22;4715;51.660;7.082;2023-04-30T12:20:34;20.30;99.90
5086;DHT22;4715;51.660;7.082;2023-04-30T12:22:59;20.30;99.90
5086;DHT22;4715;51.660;7.082;2023-04-30T12:25:22;20.40;99.90
5086;DHT22;4715;51.660;7.082;2023-04-30T12:27:46;20.40;99.90
5086;DHT22;4715;51.660;7.082;2023-04-30T12:30:09;20.40;99.90
5086;DHT22;4715;51.660;7.082;2023-04-30T12:32:33;20.30;99.90
5086;DHT22;4715;51.660;7.082;2023-04-30T12:34:57;20.10;99.90
5086;DHT22;4715;51.660;7.082;2023-04-30T12:37:22;19.90;99.90
5086;DHT22;4715;51.660;7.082;2023-04-30T12:39:45;19.90;99.90
5086;DHT22;4715;51.660;7.082;2023-04-30T12:42:08;19.90;99.90
5086;DHT22;4715;51.660;7.082;2023-04-30T12:44:41;20.10;99.90
5086;DHT22;4715;51.660;7.082;2023-04-30T12:47:06;20.30;99.90
5086;DHT22;4715;51.660;7.082;2023-04-30T12:49:32;20.40;99.90
5086;DHT22;4715;51.660;7.082;2023-04-30T12:51:58;20.60;99.90
5086;DHT22;4715;51.660;7.082;2023-04-30T12:54:28;20.60;99.90
5086;DHT22;4715;51.660;7.082;2023-04-30T12:56:57;20.30;99.90
5086;DHT22;4715;51.660;7.082;2023-04-30T12:59:20;20.00;99.90
5086;DHT22;4715;51.660;7.082;2023-04-30T13:01:45;19.80;99.90
5086;DHT22;4715;51.660;7.082;2023-04-30T13:04:09;19.90;99.90
5086;DHT22;4715;51.660;7.082;2023-04-30T13:06:34;20.00;99.90
5086;DHT22;4715;51.660;7.082;2023-04-30T13:08:59;19.80;99.90
5086;DHT22;4715;51.660;7.082;2023-04-30T13:11:22;19.60;99.90
5086;DHT22;4715;51.660;7.082;2023-04-30T13:13:45;19.40;99.90
5086;DHT22;4715;51.660;7.082;2023-04-30T13:16:08;19.20;99.90
5086;DHT22;4715;51.660;7.082;2023-04-30T13:18:38;19.30;99.90
5086;DHT22;4715;51.660;7.082;2023-04-30T13:21:13;19.50;99.90
5086;DHT22;4715;51.660;7.082;2023-04-30T13:23:35;19.80;99.90
5086;DHT22;4715;51.660;7.082;2023-04-30T13:25:57;20.10;99.90
5086;DHT22;4715;51.660;7.082;2023-04-30T13:28:19;20.30;99.90
5086;DHT22;4715;51.660;7.082;2023-04-30T13:30:42;20.40;99.90
5086;DHT22;4715;51.660;7.082;2023-04-30T13:33:05;20.60;99.90
5086;DHT22;4715;51.660;7.082;2023-04-30T13:35:29;20.80;99.90
5086;DHT22;4715;51.660;7.082;2023-04-30T13:37:53;20.80;99.90
5086;DHT22;4715;51.660;7.082;2023-04-30T13:40:15;20.60;99.90
5086;DHT22;4715;51.660;7.082;2023-04-30T13:42:37;20.30;99.90
5086;DHT22;4715;51.660;7.082;2023-04-30T13:45:00;20.20;99.90
5086;DHT22;4715;51.660;7.082;2023-04-30T13:47:22;20.30;99.90
5086;DHT22;4715;51.660;7.082;2023-04-30T13:49:44;20.40;99.90
5086;DHT22;4715;51.660;7.082;2023-04-30T13:52:06;20.50;99.90
5086;DHT22;4715;51.660;7.082;2023-04-30T13:54:31;20.80;99.90
5086;DHT22;4715;51.660;7.082;2023-04-30T13:56:53;21.00;99.90
5086;DHT22;4715;51.660;7.082;2023-04-30T13:59:17;21.20;99.90
5086;DHT22;4715;51.660;7.082;2023-04-30T14:01:39;21.40;99.90
5086;DHT22;4715;51.660;7.082;2023-04-30T14:04:02;21.50;99.90
5086;DHT22;4715;51.660;7.082;2023-04-30T14:06:26;21.60;99.90
5086;DHT22;4715;51.660;7.082;2023-04-30T14:08:50;21.70;99.90
5086;DHT22;4715;51.660;7.082;2023-04-30T14:11:13;21.60;99.90
5086;DHT22;4715;51.660;7.082;2023-04-30T14:13:35;21.60;99.90
5086;DHT22;4715;51.660;7.082;2023-04-30T14:15:57;21.60;99.90
5086;DHT22;4715;51.660;7.082;2023-04-30T14:18:19;21.70;99.90
5086;DHT22;4715;51.660;7.082;2023-04-30T14:20:42;21.90;99.90
5086;DHT22;4715;51.660;7.082;2023-04-30T14:23:04;21.90;99.90
5086;DHT22;4715;51.660;7.082;2023-04-30T14:25:29;21.90;99.90
5086;DHT22;4715;51.660;7.082;2023-04-30T14:27:52;21.90;99.90
5086;DHT22;4715;51.660;7.082;2023-04-30T14:30:14;21.90;99.90
5086;DHT22;4715;51.660;7.082;2023-04-30T14:32:36;21.70;99.90
5086;DHT22;4715;51.660;7.082;2023-04-30T14:34:58;21.40;99.90
5086;DHT22;4715;51.660;7.082;2023-04-30T14:37:21;21.20;99.90
5086;DHT22;4715;51.660;7.082;2023-04-30T14:39:43;21.20;99.90
5086;DHT22;4715;51.660;7.082;2023-04-30T14:42:05;21.30;99.90
5086;DHT22;4715;51.660;7.082;2023-04-30T14:44:30;21.40;99.90
5086;DHT22;4715;51.660;7.082;2023-04-30T14:46:52;21.70;99.90
5086;DHT22;4715;51.660;7.082;2023-04-30T14:49:14;21.80;99.90
5086;DHT22;4715;51.660;7.082;2023-04-30T14:51:36;21.70;99.90
5086;DHT22;4715;51.660;7.082;2023-04-30T14:53:59;21.60;99.90
5086;DHT22;4715;51.660;7.082;2023-04-30T14:56:22;21.50;99.90
5086;DHT22;4715;51.660;7.082;2023-04-30T14:58:45;21.30;99.90
5086;DHT22;4715;51.660;7.082;2023-04-30T15:01:16;21.10;99.90
5086;DHT22;4715;51.660;7.082;2023-04-30T15:03:37;20.90;99.90
5086;DHT22;4715;51.660;7.082;2023-04-30T15:06:00;20.80;99.90
5086;DHT22;4715;51.660;7.082;2023-04-30T15:08:22;21.10;99.90
5086;DHT22;4715;51.660;7.082;2023-04-30T15:10:44;21.60;99.90
5086;DHT22;4715;51.660;7.082;2023-04-30T15:13:06;21.90;99.90
5086;DHT22;4715;51.660;7.082;2023-04-30T15:15:28;22.00;99.90
5086;DHT22;4715;51.660;7.082;2023-04-30T15:17:52;21.80;99.90
5086;DHT22;4715;51.660;7.082;2023-04-30T15:20:14;21.50;99.90
5086;DHT22;4715;51.660;7.082;2023-04-30T15:22:40;21.60;99.90
5086;DHT22;4715;51.660;7.082;2023-04-30T15:25:04;21.70;99.90
5086;DHT22;4715;51.660;7.082;2023-04-30T15:27:32;21.90;99.90
5086;DHT22;4715;51.660;7.082;2023-04-30T15:29:54;22.10;99.90
5086;DHT22;4715;51.660;7.082;2023-04-30T15:32:17;22.10;99.90
5086;DHT22;4715;51.660;7.082;2023-04-30T15:34:40;22.20;99.90
5086;DHT22;4715;51.660;7.082;2023-04-30T15:37:02;22.30;99.90
5086;DHT22;4715;51.660;7.082;2023-04-30T15:39:26;22.50;99.90
5086;DHT22;4715;51.660;7.082;2023-04-30T15:41:48;23.00;99.90
5086;DHT22;4715;51.660;7.082;2023-04-30T15:44:10;23.40;99.90